createdAt,value
2022-12-09T00:01:23.141Z,78.60
2022-12-09T00:06:28.298Z,78.63
2022-12-09T00:11:30.807Z,78.73
2022-12-09T00:16:33.289Z,78.42
2022-12-09T00:21:35.868Z,78.90
2022-12-09T00:26:38.936Z,78.76
2022-12-09T00:31:41.418Z,78.29
2022-12-09T00:36:43.792Z,78.34
2022-12-09T00:41:46.246Z,78.52
2022-12-09T00:46:48.927Z,78.64
2022-12-09T00:51:51.459Z,78.46
2022-12-09T00:56:53.995Z,78.49
2022-12-09T01:01:56.395Z,78.49
2022-12-09T01:06:58.930Z,78.12
2022-12-09T01:12:01.207Z,78.54
2022-12-09T01:17:03.887Z,78.61
2022-12-09T01:22:07.138Z,78.14
2022-12-09T01:27:09.644Z,78.39
2022-12-09T01:32:12.504Z,78.69
2022-12-09T01:37:15.067Z,78.43
2022-12-09T01:42:23.336Z,78.30
2022-12-09T01:47:25.730Z,78.55
2022-12-09T01:52:28.128Z,78.42
2022-12-09T01:57:30.785Z,78.48
2022-12-09T02:02:37.621Z,78.68
2022-12-09T02:07:40.393Z,78.57
2022-12-09T02:12:51.289Z,78.61
2022-12-09T02:18:00.481Z,78.59
2022-12-09T02:23:43.564Z,78.55
2022-12-09T02:29:04.257Z,78.61
2022-12-09T02:34:18.379Z,78.53
2022-12-09T02:39:31.164Z,78.20
2022-12-09T02:44:35.933Z,78.51
2022-12-09T02:49:41.948Z,78.54
2022-12-09T02:54:44.742Z,78.51
2022-12-09T02:59:47.764Z,78.63
2022-12-09T03:05:04.814Z,78.80
2022-12-09T03:10:13.037Z,79.01
2022-12-09T03:15:23.619Z,78.91
2022-12-09T03:20:31.071Z,79.27
2022-12-09T03:25:43.170Z,78.77
2022-12-09T03:30:47.155Z,78.60
2022-12-09T03:35:58.715Z,78.92
2022-12-09T03:41:23.062Z,78.83
2022-12-09T03:46:26.303Z,78.80
2022-12-09T03:51:37.084Z,78.67
2022-12-09T03:56:44.740Z,78.85
2022-12-09T04:01:47.793Z,79.04
2022-12-09T04:06:53.653Z,79.19
2022-12-09T04:11:56.189Z,79.35
2022-12-09T04:16:58.609Z,78.93
2022-12-09T04:22:01.323Z,79.07
2022-12-09T04:27:04.226Z,79.09
2022-12-09T04:32:06.956Z,79.59
2022-12-09T04:37:09.512Z,79.52
2022-12-09T04:42:12.191Z,79.26
2022-12-09T04:47:14.847Z,79.57
2022-12-09T04:52:20.663Z,79.56
2022-12-09T04:57:23.442Z,79.83
2022-12-09T05:02:26.765Z,79.83
2022-12-09T05:07:32.055Z,79.60
2022-12-09T05:12:34.947Z,80.00
2022-12-09T05:17:37.368Z,80.50
2022-12-09T05:22:40.102Z,80.16
2022-12-09T05:27:45.553Z,80.21
2022-12-09T05:32:48.184Z,79.96
2022-12-09T05:37:50.670Z,79.35
2022-12-09T05:42:53.034Z,80.02
2022-12-09T05:47:55.630Z,80.02
2022-12-09T05:52:58.152Z,79.34
2022-12-09T05:58:01.499Z,79.67
2022-12-09T06:03:04.301Z,79.92
2022-12-09T06:08:07.891Z,80.12
2022-12-09T06:13:10.500Z,79.92
2022-12-09T06:18:13.119Z,80.03
2022-12-09T06:23:15.995Z,80.25
2022-12-09T06:28:19.848Z,80.50
2022-12-09T06:33:52.884Z,79.47
2022-12-09T06:38:45.565Z,79.43
2022-12-09T06:43:48.239Z,80.07
2022-12-09T06:48:51.176Z,80.17
2022-12-09T06:53:54.619Z,79.76
2022-12-09T06:58:57.445Z,80.48
2022-12-09T07:04:00.310Z,79.66
2022-12-09T07:09:06.679Z,79.51
2022-12-09T07:14:10.713Z,79.80
2022-12-09T07:19:19.087Z,80.04
2022-12-09T07:24:22.047Z,79.81
2022-12-09T07:29:24.695Z,80.29
2022-12-09T07:34:27.483Z,80.13
2022-12-09T07:39:30.416Z,80.21
2022-12-09T07:44:33.134Z,79.77
2022-12-09T07:49:35.748Z,80.29
2022-12-09T07:54:38.365Z,79.92
2022-12-09T07:59:40.873Z,79.91
2022-12-09T08:04:43.464Z,80.22
2022-12-09T08:09:46.451Z,80.20
2022-12-09T08:14:49.386Z,80.07
2022-12-09T08:19:53.178Z,79.85
2022-12-09T08:24:55.848Z,79.74
2022-12-09T08:29:58.493Z,79.74
2022-12-09T08:35:01.225Z,79.28
2022-12-09T08:40:04.971Z,78.98
2022-12-09T08:45:07.929Z,78.98
2022-12-09T08:50:11.416Z,78.75
2022-12-09T08:55:14.001Z,78.46
2022-12-09T09:00:17.487Z,78.61
2022-12-09T09:05:20.010Z,77.94
2022-12-09T09:10:22.701Z,77.77
2022-12-09T09:15:25.803Z,77.57
2022-12-09T09:20:28.360Z,77.56
2022-12-09T09:25:31.323Z,77.43
2022-12-09T09:30:34.052Z,77.10
2022-12-09T09:35:37.940Z,76.99
2022-12-09T09:40:43.753Z,76.59
2022-12-09T09:45:47.187Z,76.20
2022-12-09T09:51:02.282Z,75.89
2022-12-09T09:56:43.941Z,75.90
2022-12-09T10:02:13.814Z,75.77
2022-12-09T10:07:42.924Z,75.40
2022-12-09T10:13:17.716Z,75.04
2022-12-09T10:18:33.694Z,74.74
2022-12-09T10:23:36.259Z,74.79
2022-12-09T10:28:47.067Z,74.58
2022-12-09T10:33:50.525Z,74.48
2022-12-09T10:38:53.561Z,73.78
2022-12-09T10:44:23.929Z,73.95
2022-12-09T10:49:27.104Z,73.81
2022-12-09T10:54:44.221Z,73.45
2022-12-09T11:00:02.192Z,73.10
2022-12-09T11:05:29.839Z,73.12
2022-12-09T11:10:33.386Z,73.09
2022-12-09T11:15:42.076Z,72.58
2022-12-09T11:20:59.997Z,72.13
2022-12-09T11:26:04.744Z,72.27
2022-12-09T11:31:29.896Z,71.65
2022-12-09T11:36:40.142Z,71.38
2022-12-09T11:42:17.191Z,71.39
2022-12-09T11:48:22.560Z,71.28
2022-12-09T11:53:24.676Z,70.55
2022-12-09T11:58:46.720Z,70.73
2022-12-09T12:03:53.135Z,70.64
2022-12-09T12:09:04.819Z,70.30
2022-12-09T12:14:29.040Z,70.07
2022-12-09T12:19:36.712Z,70.22
2022-12-09T12:25:09.900Z,70.22
2022-12-09T12:30:33.069Z,70.52
2022-12-09T12:35:47.532Z,70.50
2022-12-09T12:40:53.997Z,70.46
2022-12-09T12:46:21.734Z,70.25
2022-12-09T12:51:26.936Z,70.62
2022-12-09T12:56:43.137Z,70.33
2022-12-09T13:02:01.272Z,70.31
2022-12-09T13:07:24.845Z,70.23
2022-12-09T13:12:54.258Z,70.18
2022-12-09T13:17:57.124Z,70.43
2022-12-09T13:23:28.730Z,70.81
2022-12-09T13:28:47.972Z,70.80
2022-12-09T13:33:52.749Z,71.15
2022-12-09T13:38:56.289Z,71.25
2022-12-09T13:44:11.397Z,71.42
2022-12-09T13:49:24.511Z,71.78
2022-12-09T13:54:28.680Z,71.88
2022-12-09T13:59:30.952Z,72.11
2022-12-09T14:04:38.298Z,72.01
2022-12-09T14:09:54.950Z,71.85
2022-12-09T14:15:23.440Z,72.08
2022-12-09T14:20:31.738Z,73.35
2022-12-09T14:25:36.759Z,74.21
2022-12-09T14:31:06.549Z,74.27
2022-12-09T14:36:14.121Z,74.58
2022-12-09T14:41:26.413Z,75.14
2022-12-09T14:46:40.400Z,74.89
2022-12-09T14:51:55.872Z,74.93
2022-12-09T14:57:01.035Z,75.07
2022-12-09T15:02:19.301Z,75.25
2022-12-09T15:07:29.041Z,75.23
2022-12-09T15:12:38.744Z,75.30
2022-12-09T15:17:46.045Z,75.33
2022-12-09T15:22:54.361Z,75.87
2022-12-09T15:28:02.312Z,75.74
2022-12-09T15:33:13.118Z,76.28
2022-12-09T15:38:15.744Z,76.17
2022-12-09T15:43:18.136Z,76.06
2022-12-09T15:48:24.350Z,76.40
2022-12-09T15:53:53.573Z,76.98
2022-12-09T15:59:01.924Z,76.20
2022-12-09T16:04:07.202Z,76.29
2022-12-09T16:09:14.732Z,76.55
2022-12-09T16:14:18.865Z,76.75
2022-12-09T16:19:39.332Z,76.93
2022-12-09T16:25:14.148Z,77.02
2022-12-09T16:30:21.384Z,76.95
2022-12-09T16:35:40.779Z,77.15
2022-12-09T16:40:46.371Z,77.30
2022-12-09T16:45:50.336Z,77.18
2022-12-09T16:51:13.145Z,77.60
2022-12-09T16:56:28.492Z,77.47
2022-12-09T17:01:35.726Z,77.49
2022-12-09T17:06:40.338Z,78.38
2022-12-09T17:11:48.529Z,78.91
2022-12-09T17:16:51.539Z,78.15
2022-12-09T17:21:55.251Z,77.67
2022-12-09T17:26:58.649Z,77.83
2022-12-09T17:32:01.029Z,78.28
2022-12-09T17:37:04.036Z,77.99
2022-12-09T17:42:06.533Z,77.94
2022-12-09T17:47:09.107Z,78.12
2022-12-09T17:52:11.728Z,78.91
2022-12-09T17:57:14.421Z,78.53
2022-12-09T18:02:16.991Z,78.29
2022-12-09T18:07:19.552Z,78.27
2022-12-09T18:12:22.355Z,77.90
2022-12-09T18:17:24.746Z,77.99
2022-12-09T18:22:27.326Z,78.08
2022-12-09T18:27:30.729Z,77.93
2022-12-09T18:32:36.165Z,78.00
2022-12-09T18:37:39.450Z,78.27
2022-12-09T18:42:41.858Z,78.51
2022-12-09T18:47:44.469Z,78.12
2022-12-09T18:52:47.823Z,78.26
2022-12-09T18:57:50.226Z,78.10
2022-12-09T19:02:52.670Z,78.00
2022-12-09T19:07:55.294Z,78.20
2022-12-09T19:12:57.977Z,77.95
2022-12-09T19:18:00.518Z,77.94
2022-12-09T19:23:03.935Z,77.59
2022-12-09T19:28:06.357Z,78.10
2022-12-09T19:33:08.955Z,77.91
2022-12-09T19:38:11.419Z,78.09
2022-12-09T19:43:14.209Z,77.89
2022-12-09T19:48:16.550Z,78.12
2022-12-09T19:53:19.145Z,77.98
2022-12-09T19:58:21.638Z,78.39
2022-12-09T20:03:25.234Z,78.07
2022-12-09T20:08:27.866Z,77.81
2022-12-09T20:13:32.184Z,78.15
2022-12-09T20:18:35.257Z,78.02
2022-12-09T20:23:39.982Z,77.75
2022-12-09T20:28:44.620Z,78.20
2022-12-09T20:33:47.535Z,78.11
2022-12-09T20:38:52.799Z,77.81
2022-12-09T20:43:57.545Z,78.26
2022-12-09T20:49:00.702Z,78.42
2022-12-09T20:54:05.847Z,78.21
2022-12-09T20:59:10.677Z,78.25
2022-12-09T21:04:13.678Z,78.47
2022-12-09T21:09:19.575Z,78.90
2022-12-09T21:14:22.318Z,78.33
2022-12-09T21:19:30.524Z,78.46
2022-12-09T21:24:33.861Z,78.40
2022-12-09T21:29:36.661Z,78.75
2022-12-09T21:34:39.318Z,78.62
2022-12-09T21:39:41.877Z,79.76
2022-12-09T21:44:44.702Z,79.15
2022-12-09T21:49:47.135Z,78.50
2022-12-09T21:54:55.220Z,78.81
2022-12-09T21:59:58.118Z,78.86
2022-12-09T22:05:00.590Z,80.06
2022-12-09T22:10:03.227Z,79.05
2022-12-09T22:15:07.756Z,79.11
2022-12-09T22:25:33.462Z,78.89
2022-12-09T22:30:37.016Z,78.84
2022-12-09T22:35:40.036Z,79.09
2022-12-09T22:40:43.484Z,79.10
2022-12-09T22:45:46.123Z,78.97
2022-12-09T22:50:48.864Z,79.00
2022-12-09T22:55:51.352Z,78.88
2022-12-09T23:00:54.970Z,79.12
2022-12-09T23:05:57.460Z,79.28
2022-12-09T23:11:13.597Z,79.23
2022-12-09T23:16:22.410Z,79.36
2022-12-09T23:21:36.501Z,79.15
2022-12-09T23:26:41.210Z,79.34
2022-12-09T23:31:44.379Z,79.49
2022-12-09T23:36:47.242Z,79.88
2022-12-09T23:41:49.759Z,79.58
2022-12-09T23:46:52.390Z,79.85
2022-12-09T23:51:54.959Z,79.99
2022-12-09T23:56:57.347Z,79.84
